Time;durP1;ratioP1;P1;durP2;ratioP2;P2;SDS_P1;SDS_P2;PMS_P1;PMS_P2;Temp;Humidity;BMP_temperature;BMP_pressure;BME280_temperature;BME280_humidity;BME280_pressure;Samples;Min_cycle;Max_cycle;Signal;HPM_P1;HPM_P2
2021/06/04 00:01:26;;;;;;;10.50;6.72;;;;;;;14.63;94.72;98092.91;5052644;28;20044;-77
2021/06/04 00:03:52;;;;;;;9.10;6.00;;;;;;;14.50;95.06;98078.56;5027671;28;20059;-78
2021/06/04 00:06:18;;;;;;;9.20;5.60;;;;;;;14.55;95.70;98087.16;5045483;28;20029;-77
2021/06/04 00:08:46;;;;;;;10.60;5.47;;;;;;;14.34;95.43;98069.81;5049889;28;20039;-77
2021/06/04 00:11:20;;;;;;;14.27;5.63;;;;;;;14.48;95.69;98085.00;5041112;28;20123;-77
2021/06/04 00:13:49;;;;;;;7.60;5.85;;;;;;;14.43;95.94;98077.25;5027587;28;20100;-77
2021/06/04 00:16:27;;;;;;;9.82;6.00;;;;;;;14.45;95.68;98090.63;5050749;28;20388;-77
2021/06/04 00:18:53;;;;;;;9.60;6.15;;;;;;;14.49;95.25;98095.66;5046436;28;20090;-78
2021/06/04 00:21:23;;;;;;;9.65;5.80;;;;;;;14.43;95.39;98082.63;5042536;28;20449;-77
2021/06/04 00:23:49;;;;;;;8.57;6.03;;;;;;;14.49;95.48;98090.28;5062078;28;20077;-77
2021/06/04 00:26:15;;;;;;;11.52;6.25;;;;;;;14.53;95.86;98088.25;5056022;28;20033;-77
2021/06/04 00:28:40;;;;;;;7.72;5.82;;;;;;;14.54;96.75;98082.75;5054927;28;20024;-77
2021/06/04 00:31:07;;;;;;;8.82;6.28;;;;;;;14.57;97.10;98079.88;5046445;28;20082;-78
2021/06/04 00:33:42;;;;;;;12.35;6.05;;;;;;;14.61;96.56;98075.97;5049585;28;20032;-77
2021/06/04 00:36:08;;;;;;;10.65;6.32;;;;;;;14.63;97.57;98087.50;5039778;28;20032;-78
2021/06/04 00:38:34;;;;;;;13.80;6.43;;;;;;;14.61;96.65;98081.34;5039836;28;20078;-77
2021/06/04 00:41:06;;;;;;;9.43;5.70;;;;;;;14.63;96.37;98082.13;5039895;28;20107;-77
2021/06/04 00:43:32;;;;;;;9.43;6.33;;;;;;;14.54;98.64;98072.00;5051264;28;20398;-77
2021/06/04 00:46:00;;;;;;;8.85;6.05;;;;;;;14.51;98.07;98065.97;5041375;28;20116;-77
2021/06/04 00:48:27;;;;;;;8.73;6.20;;;;;;;14.61;97.70;98081.34;5059312;28;20028;-77
2021/06/04 00:51:06;;;;;;;10.55;6.72;;;;;;;14.65;97.08;98090.94;5044217;28;20033;-77
2021/06/04 00:53:33;;;;;;;11.68;6.75;;;;;;;14.59;97.44;98091.38;5038254;28;20458;-77
2021/06/04 00:55:59;;;;;;;13.77;6.85;;;;;;;14.58;97.63;98083.44;5047908;28;20025;-76
2021/06/04 00:58:35;;;;;;;11.23;6.20;;;;;;;14.61;97.15;98092.13;5033860;28;20036;-75
2021/06/04 01:01:01;;;;;;;11.05;6.55;;;;;;;14.65;97.18;98090.94;5042779;28;20480;-75
2021/06/04 01:03:31;;;;;;;8.70;6.93;;;;;;;14.64;96.59;98089.22;5044620;28;20027;-75
2021/06/04 01:06:07;;;;;;;11.60;6.57;;;;;;;14.70;96.10;98089.78;5021847;28;20067;-75
2021/06/04 01:08:41;;;;;;;13.30;6.60;;;;;;;14.71;96.89;98088.78;5037547;28;20540;-75
2021/06/04 01:11:40;;;;;;;14.73;6.05;;;;;;;14.57;97.36;98071.78;5032358;28;20059;-75
2021/06/04 01:14:27;;;;;;;13.18;6.35;;;;;;;14.68;97.20;98089.00;5063070;28;20106;-75
2021/06/04 01:17:04;;;;;;;11.45;6.63;;;;;;;14.59;96.97;98083.31;5037869;28;20093;-75
2021/06/04 01:20:05;;;;;;;14.40;6.93;;;;;;;14.61;96.99;98088.59;5045823;28;20032;-77
2021/06/04 01:22:51;;;;;;;10.95;6.60;;;;;;;14.71;97.39;98083.41;5034587;28;20093;-75
2021/06/04 01:25:28;;;;;;;10.38;6.60;;;;;;;14.64;97.97;98083.81;5065981;28;20471;-75
2021/06/04 01:27:56;;;;;;;9.55;6.57;;;;;;;14.61;99.52;98084.03;5065341;28;20021;-75
2021/06/04 01:30:32;;;;;;;13.73;6.43;;;;;;;14.64;98.56;98083.00;5043468;28;20380;-75
2021/06/04 01:33:03;;;;;;;11.80;6.45;;;;;;;14.58;97.88;98072.66;5044822;28;20025;-75
2021/06/04 01:35:35;;;;;;;9.32;6.40;;;;;;;14.60;98.80;98087.72;5053026;28;20122;-75
2021/06/04 01:38:01;;;;;;;11.43;6.80;;;;;;;14.63;98.16;98083.94;5042434;28;20102;-75
2021/06/04 01:40:33;;;;;;;11.77;6.40;;;;;;;14.64;97.31;98086.53;5067869;28;20032;-75
2021/06/04 01:43:03;;;;;;;15.77;7.47;;;;;;;14.62;96.71;98088.47;5037083;28;20051;-74
2021/06/04 01:45:33;;;;;;;12.57;8.45;;;;;;;14.60;96.85;98087.72;5035817;28;20159;-75
2021/06/04 01:48:02;;;;;;;10.30;7.45;;;;;;;14.66;96.82;98086.44;5043598;28;20097;-75
2021/06/04 01:50:34;;;;;;;18.60;7.97;;;;;;;14.67;97.13;98100.75;5041477;28;20024;-75
2021/06/04 01:53:06;;;;;;;16.70;8.93;;;;;;;14.64;96.55;98097.28;5038157;28;20020;-75
2021/06/04 01:55:36;;;;;;;13.02;8.68;;;;;;;14.64;97.05;98099.16;5038094;28;20036;-75
2021/06/04 01:58:15;;;;;;;17.60;9.73;;;;;;;14.60;98.24;98094.94;5050427;28;20119;-75
2021/06/04 02:00:50;;;;;;;15.75;9.98;;;;;;;14.58;97.98;98094.19;5048699;28;20029;-77
2021/06/04 02:03:19;;;;;;;13.95;9.35;;;;;;;14.55;98.58;98094.41;5066582;28;20487;-77
2021/06/04 02:05:45;;;;;;;13.00;9.00;;;;;;;14.47;99.78;98085.97;5045852;28;20033;-78
2021/06/04 02:08:16;;;;;;;12.57;8.27;;;;;;;14.48;98.97;98101.16;5072570;28;20027;-75
2021/06/04 02:10:46;;;;;;;15.05;8.43;;;;;;;14.37;98.76;98096.50;5062731;28;20029;-77
2021/06/04 02:13:12;;;;;;;15.90;7.90;;;;;;;14.36;97.99;98085.88;5036645;28;20025;-77
2021/06/04 02:15:43;;;;;;;15.52;7.35;;;;;;;14.40;99.12;98092.75;5066302;28;20539;-75
2021/06/04 02:18:23;;;;;;;14.93;7.53;;;;;;;14.38;99.92;98095.56;5043166;28;20407;-75
2021/06/04 02:21:02;;;;;;;13.80;8.88;;;;;;;14.36;98.85;98093.94;5055626;28;20039;-76
2021/06/04 02:23:37;;;;;;;13.00;7.97;;;;;;;14.27;100.00;98099.91;5046634;28;20388;-76
2021/06/04 02:26:20;;;;;;;19.67;8.60;;;;;;;14.19;100.00;98103.09;5045318;28;20033;-75
2021/06/04 02:29:02;;;;;;;23.80;9.25;;;;;;;14.25;100.00;98100.00;5052020;28;20133;-76
2021/06/04 02:31:46;;;;;;;25.92;9.80;;;;;;;14.30;100.00;98105.09;5026748;28;20052;-76
2021/06/04 02:34:36;;;;;;;22.92;9.30;;;;;;;14.31;100.00;98114.88;5068668;28;20032;-76
2021/06/04 02:37:06;;;;;;;18.38;9.20;;;;;;;14.25;100.00;98109.91;5045037;28;20124;-76
2021/06/04 02:39:47;;;;;;;25.75;10.38;;;;;;;14.24;100.00;98116.28;5054112;28;20037;-76
2021/06/04 02:42:12;;;;;;;17.92;11.05;;;;;;;14.26;100.00;98120.56;5051969;28;20446;-76
2021/06/04 02:44:47;;;;;;;16.80;9.93;;;;;;;14.29;100.00;98120.38;5064257;28;20026;-76
2021/06/04 02:47:38;;;;;;;21.20;10.38;;;;;;;14.30;100.00;98124.78;5022214;28;20032;-75
2021/06/04 02:50:18;;;;;;;15.40;9.38;;;;;;;14.24;100.00;98106.38;5061557;28;20041;-75
2021/06/04 02:52:44;;;;;;;15.70;9.40;;;;;;;14.26;100.00;98117.88;5057194;28;20559;-75
2021/06/04 02:55:15;;;;;;;20.90;9.63;;;;;;;14.20;100.00;98104.84;5038128;28;20037;-75
2021/06/04 02:57:40;;;;;;;28.65;10.02;;;;;;;14.20;100.00;98099.47;5036194;28;20047;-75
2021/06/04 03:00:32;;;;;;;20.27;9.27;;;;;;;14.26;100.00;98109.81;5063291;28;20496;-75
2021/06/04 03:02:58;;;;;;;13.27;9.20;;;;;;;14.20;100.00;98099.47;5038559;28;20040;-74
2021/06/04 03:05:31;;;;;;;17.83;8.82;;;;;;;14.19;100.00;98107.63;5036529;28;20009;-75
2021/06/04 03:07:57;;;;;;;16.33;8.73;;;;;;;14.21;100.00;98113.78;5044276;28;20036;-75
2021/06/04 03:10:39;;;;;;;10.57;7.32;;;;;;;14.30;100.00;98123.94;5048613;28;20111;-75
2021/06/04 03:13:08;;;;;;;13.63;7.53;;;;;;;14.32;100.00;98121.97;5038176;28;20056;-75
2021/06/04 03:15:41;;;;;;;11.98;7.10;;;;;;;14.38;100.00;98125.16;5035276;28;20038;-75
2021/06/04 03:18:09;;;;;;;11.80;6.78;;;;;;;14.46;100.00;98133.56;5048482;28;20029;-75
2021/06/04 03:20:44;;;;;;;20.83;7.78;;;;;;;14.42;100.00;98129.38;5044826;28;20140;-75
2021/06/04 03:23:13;;;;;;;10.23;6.88;;;;;;;14.50;100.00;98132.41;5069770;28;20044;-75
2021/06/04 03:25:45;;;;;;;13.20;7.05;;;;;;;14.55;100.00;98132.94;5046150;28;20039;-75
2021/06/04 03:28:14;;;;;;;11.35;7.22;;;;;;;14.56;100.00;98137.38;5041098;28;20035;-75
2021/06/04 03:30:42;;;;;;;10.05;6.75;;;;;;;14.60;100.00;98135.31;5047534;28;20492;-75
2021/06/04 03:33:10;;;;;;;15.43;8.10;;;;;;;14.52;100.00;98124.19;5048441;28;20471;-76
2021/06/04 03:35:35;;;;;;;22.70;7.75;;;;;;;14.64;100.00;98148.47;5034832;28;20039;-76
2021/06/04 03:38:03;;;;;;;16.80;7.43;;;;;;;14.65;98.36;98131.34;5059689;28;20407;-76
2021/06/04 03:40:31;;;;;;;15.95;7.60;;;;;;;14.74;98.79;98137.03;5060040;28;20037;-76
2021/06/04 03:42:59;;;;;;;15.18;7.10;;;;;;;14.87;97.28;98143.31;5026125;28;20039;-76
2021/06/04 03:45:28;;;;;;;12.52;7.30;;;;;;;14.89;97.59;98146.78;5044012;28;20119;-76
2021/06/04 03:47:54;;;;;;;17.23;7.25;;;;;;;14.99;97.15;98147.84;5058429;28;20403;-76
2021/06/04 03:50:20;;;;;;;22.20;7.70;;;;;;;15.04;96.64;98130.38;5042271;28;20123;-76
2021/06/04 03:52:45;;;;;;;14.90;6.78;;;;;;;15.00;96.34;98122.63;5059666;28;20495;-75
2021/06/04 03:55:16;;;;;;;14.02;7.07;;;;;;;15.21;95.96;98148.06;5034315;28;20507;-75
2021/06/04 03:57:42;;;;;;;15.32;7.15;;;;;;;15.09;96.55;98130.06;5036397;28;20057;-76
2021/06/04 04:00:31;;;;;;;13.75;7.03;;;;;;;15.20;97.46;98155.28;5041767;28;20021;-75
2021/06/04 04:02:57;;;;;;;15.15;7.50;;;;;;;15.28;96.97;98152.06;5058171;28;20028;-76
2021/06/04 04:05:23;;;;;;;14.48;7.93;;;;;;;15.32;96.80;98153.53;5043881;28;20400;-75
2021/06/04 04:07:58;;;;;;;17.98;8.13;;;;;;;15.36;96.50;98157.75;5039137;28;20108;-75
2021/06/04 04:10:25;;;;;;;17.75;10.63;;;;;;;15.31;96.19;98153.66;5037820;28;20024;-77
2021/06/04 04:12:51;;;;;;;17.40;10.93;;;;;;;15.37;96.65;98166.72;5041166;28;20025;-78
2021/06/04 04:15:17;;;;;;;25.05;11.80;;;;;;;15.47;96.21;98159.69;5065949;28;20044;-75
2021/06/04 04:17:48;;;;;;;23.02;10.93;;;;;;;15.38;95.75;98155.78;5061606;28;20024;-76
2021/06/04 04:20:15;;;;;;;33.03;11.20;;;;;;;15.44;95.56;98168.00;5044564;28;20025;-76
2021/06/04 04:22:41;;;;;;;20.33;11.20;;;;;;;15.38;96.27;98173.84;5055707;28;20431;-77
2021/06/04 04:25:08;;;;;;;25.98;12.27;;;;;;;15.29;96.10;98161.00;5038470;28;20460;-76
2021/06/04 04:27:33;;;;;;;20.45;11.20;;;;;;;15.30;97.00;98168.09;5036168;28;20082;-76
2021/06/04 04:29:59;;;;;;;20.50;11.73;;;;;;;15.46;97.25;98172.31;5068252;28;20032;-76
2021/06/04 04:32:25;;;;;;;18.48;11.23;;;;;;;15.63;95.68;98177.38;5028069;28;20407;-76
2021/06/04 04:34:51;;;;;;;23.67;11.07;;;;;;;15.69;95.27;98178.75;5051393;28;20029;-76
2021/06/04 04:37:17;;;;;;;21.70;11.18;;;;;;;15.61;94.08;98173.94;5047650;28;20053;-76
2021/06/04 04:39:46;;;;;;;21.30;10.90;;;;;;;15.80;93.25;98186.09;5055548;28;20484;-77
2021/06/04 04:42:14;;;;;;;30.23;10.10;;;;;;;15.77;91.88;98162.03;5055679;28;20028;-76
2021/06/04 04:44:42;;;;;;;22.35;10.27;;;;;;;16.00;92.18;98185.47;5069554;28;20021;-77
2021/06/04 04:47:10;;;;;;;23.98;10.38;;;;;;;16.07;90.73;98171.44;5028930;28;20024;-76
2021/06/04 04:49:36;;;;;;;22.10;10.10;;;;;;;16.22;89.61;98191.88;5053655;28;20020;-80
2021/06/04 04:52:11;;;;;;;27.95;10.00;;;;;;;16.27;89.30;98184.28;5048430;28;20020;-76
2021/06/04 04:54:40;;;;;;;22.35;10.23;;;;;;;16.38;87.82;98191.59;5065865;28;20380;-79
2021/06/04 04:57:06;;;;;;;21.70;10.73;;;;;;;16.52;88.25;98194.13;5047251;28;20622;-77
2021/06/04 04:59:32;;;;;;;26.15;10.05;;;;;;;16.58;88.04;98193.69;5030719;28;20044;-78
2021/06/04 05:01:57;;;;;;;20.33;10.50;;;;;;;16.55;87.67;98179.56;5065845;28;20086;-78
2021/06/04 05:04:23;;;;;;;30.15;10.80;;;;;;;16.69;86.62;98187.47;5059134;28;20017;-78
2021/06/04 05:06:51;;;;;;;24.02;10.82;;;;;;;16.64;85.08;98182.41;5062813;28;20029;-77
2021/06/04 05:09:17;;;;;;;22.38;11.27;;;;;;;16.87;85.40;98198.72;5050521;28;20020;-77
2021/06/04 05:11:45;;;;;;;22.17;11.52;;;;;;;16.94;84.96;98192.72;5050736;28;20027;-77
2021/06/04 05:14:10;;;;;;;21.10;11.10;;;;;;;17.07;84.51;98212.41;5061571;28;20025;-77
2021/06/04 05:16:36;;;;;;;18.90;10.68;;;;;;;17.11;84.95;98188.69;5057385;28;20035;-77
2021/06/04 05:19:01;;;;;;;24.73;10.73;;;;;;;17.24;83.00;98208.41;5064751;28;20029;-77
2021/06/04 05:21:27;;;;;;;21.10;10.90;;;;;;;17.14;83.40;98196.56;5045279;28;20040;-77
2021/06/04 05:23:54;;;;;;;25.10;11.80;;;;;;;17.18;84.18;98204.34;5043000;28;20020;-77
2021/06/04 05:26:20;;;;;;;19.73;9.77;;;;;;;17.45;82.51;98212.13;5050322;28;20115;-77
2021/06/04 05:28:45;;;;;;;25.05;10.13;;;;;;;17.52;82.48;98216.06;5060330;28;20445;-77
2021/06/04 05:31:13;;;;;;;21.20;9.85;;;;;;;17.74;80.75;98217.97;5020433;28;20043;-77
2021/06/04 05:33:42;;;;;;;16.90;9.93;;;;;;;17.68;80.81;98223.88;5052646;28;20035;-77
2021/06/04 05:36:13;;;;;;;23.92;10.65;;;;;;;17.77;80.76;98224.00;5036163;28;20037;-77
2021/06/04 05:38:39;;;;;;;56.80;38.08;;;;;;;17.61;80.23;98218.06;5052765;28;20052;-77
2021/06/04 05:41:05;;;;;;;31.80;14.48;;;;;;;17.52;80.23;98207.09;5070785;28;20514;-76
2021/06/04 05:43:37;;;;;;;19.30;8.63;;;;;;;17.54;78.87;98219.50;5052784;28;20028;-76
2021/06/04 05:46:03;;;;;;;18.77;9.45;;;;;;;17.51;79.51;98229.69;5052619;28;20035;-77
2021/06/04 05:48:29;;;;;;;20.00;10.15;;;;;;;17.63;80.16;98226.06;5051494;28;20093;-76
2021/06/04 05:50:59;;;;;;;17.60;9.15;;;;;;;17.64;78.88;98228.66;5052816;28;20484;-77
2021/06/04 05:53:30;;;;;;;12.68;8.70;;;;;;;17.80;78.17;98234.56;5052725;28;20513;-76
2021/06/04 05:55:57;;;;;;;19.77;8.57;;;;;;;17.88;77.49;98234.81;5032810;28;20021;-77
2021/06/04 05:58:23;;;;;;;25.30;9.75;;;;;;;17.73;78.58;98237.88;5032696;28;20558;-76
2021/06/04 06:00:54;;;;;;;16.45;7.40;;;;;;;17.61;77.99;98242.41;5050138;28;20033;-76
2021/06/04 06:03:22;;;;;;;15.82;8.10;;;;;;;17.52;78.56;98218.78;5043947;28;20443;-76
2021/06/04 06:05:49;;;;;;;17.30;8.35;;;;;;;17.73;78.36;98233.31;5069296;28;20028;-76
2021/06/04 06:08:15;;;;;;;11.50;7.10;;;;;;;17.92;74.82;98240.84;5065098;28;20051;-76
2021/06/04 06:10:40;;;;;;;13.88;6.53;;;;;;;18.06;72.58;98245.13;5050458;28;20056;-76
2021/06/04 06:13:07;;;;;;;7.32;5.45;;;;;;;18.24;70.37;98249.06;5050377;28;20424;-76
2021/06/04 06:15:32;;;;;;;11.68;5.57;;;;;;;18.07;71.06;98234.19;5050340;28;20040;-76
2021/06/04 06:17:58;;;;;;;17.92;8.50;;;;;;;17.96;72.16;98222.50;5032485;28;20025;-76
2021/06/04 06:20:27;;;;;;;15.75;7.40;;;;;;;18.23;72.46;98231.09;5052326;28;20028;-77
2021/06/04 06:22:54;;;;;;;40.85;6.35;;;;;;;18.65;71.67;98242.94;5051908;28;20400;-76
2021/06/04 06:25:28;;;;;;;14.75;5.53;;;;;;;18.77;69.53;98231.94;5040812;28;20062;-76
2021/06/04 06:27:53;;;;;;;13.23;5.80;;;;;;;19.16;67.77;98260.25;5031993;28;20025;-77
2021/06/04 06:30:22;;;;;;;14.25;5.47;;;;;;;19.05;67.19;98254.00;5050206;28;20641;-77
2021/06/04 06:32:48;;;;;;;15.75;6.30;;;;;;;19.26;67.25;98235.91;5031898;28;20066;-77
2021/06/04 06:35:16;;;;;;;12.48;6.15;;;;;;;19.64;66.03;98252.47;5031900;28;20492;-77
2021/06/04 06:37:42;;;;;;;23.42;8.35;;;;;;;19.47;67.34;98244.97;5031207;28;20044;-77
2021/06/04 06:40:08;;;;;;;19.42;6.53;;;;;;;20.01;65.95;98250.97;5049844;28;20033;-77
2021/06/04 06:42:34;;;;;;;63.72;37.00;;;;;;;20.35;64.41;98245.25;5031797;28;20033;-77
2021/06/04 06:45:00;;;;;;;26.58;17.83;;;;;;;20.57;61.92;98226.00;5049406;28;20503;-77
2021/06/04 06:47:25;;;;;;;9.73;5.07;;;;;;;20.85;60.62;98246.94;5029470;28;20036;-77
2021/06/04 06:49:51;;;;;;;9.25;5.35;;;;;;;21.10;59.97;98252.84;5069558;28;20040;-77
2021/06/04 06:52:17;;;;;;;10.55;6.25;;;;;;;21.42;60.35;98264.25;5051657;28;20043;-77
2021/06/04 06:54:43;;;;;;;15.43;6.15;;;;;;;21.01;60.11;98254.53;5069628;28;20047;-77
2021/06/04 06:57:09;;;;;;;21.02;6.22;;;;;;;21.31;60.02;98251.69;5068952;28;20028;-77
2021/06/04 06:59:35;;;;;;;15.23;7.43;;;;;;;21.55;58.83;98256.66;5044380;28;20040;-77
2021/06/04 07:02:06;;;;;;;12.73;5.60;;;;;;;21.79;58.14;98257.03;5031598;28;20028;-77
2021/06/04 07:04:32;;;;;;;7.13;5.07;;;;;;;22.05;55.59;98262.72;5032060;28;20770;-76
2021/06/04 07:06:58;;;;;;;11.35;5.68;;;;;;;21.32;56.81;98258.00;5031248;28;20037;-77
2021/06/04 07:09:24;;;;;;;18.45;7.55;;;;;;;21.14;58.34;98260.56;5048940;28;20079;-76
2021/06/04 07:11:54;;;;;;;19.27;8.52;;;;;;;21.30;57.34;98260.84;5049014;28;20029;-77
2021/06/04 07:14:29;;;;;;;10.23;5.88;;;;;;;21.06;58.22;98272.13;5014897;28;20098;-77
2021/06/04 07:16:55;;;;;;;14.95;6.68;;;;;;;21.17;58.16;98253.97;5049323;28;20052;-77
2021/06/04 07:19:21;;;;;;;35.30;14.32;;;;;;;21.23;59.54;98261.56;5058797;28;20028;-77
2021/06/04 07:21:47;;;;;;;13.38;6.18;;;;;;;21.01;58.99;98282.56;5051071;28;20032;-77
2021/06/04 07:24:13;;;;;;;14.90;5.97;;;;;;;20.99;59.40;98281.84;5068323;28;20016;-77
2021/06/04 07:26:58;;;;;;;18.98;5.28;;;;;;;20.88;58.89;98282.00;5049088;28;20024;-77
2021/06/04 07:29:26;;;;;;;19.90;5.88;;;;;;;20.71;58.01;98263.63;5032755;28;20025;-77
2021/06/04 07:31:53;;;;;;;17.83;4.50;;;;;;;20.81;58.76;98275.41;5051083;28;20549;-77
2021/06/04 07:34:19;;;;;;;16.23;6.47;;;;;;;20.64;58.13;98267.91;5050348;28;20401;-76
2021/06/04 07:36:49;;;;;;;10.68;4.47;;;;;;;20.54;58.66;98280.63;5051021;28;20051;-77
2021/06/04 07:39:19;;;;;;;8.80;4.97;;;;;;;20.39;60.49;98282.03;5050882;28;20032;-77
2021/06/04 07:41:45;;;;;;;12.90;5.70;;;;;;;20.60;60.12;98288.25;5050937;28;20028;-77
2021/06/04 07:44:13;;;;;;;13.82;4.70;;;;;;;20.71;59.55;98288.09;5052578;28;20063;-77
2021/06/04 07:46:39;;;;;;;13.48;4.68;;;;;;;20.88;61.64;98284.72;5048478;28;20036;-77
2021/06/04 07:49:05;;;;;;;10.15;4.97;;;;;;;21.17;58.28;98273.88;5014280;28;20029;-77
2021/06/04 07:51:34;;;;;;;13.77;5.45;;;;;;;21.29;57.92;98290.91;5030445;28;20322;-77
2021/06/04 07:54:00;;;;;;;19.80;6.05;;;;;;;21.23;57.92;98280.59;5054262;28;20020;-77
2021/06/04 07:56:26;;;;;;;14.85;5.28;;;;;;;21.61;58.32;98296.91;5050446;28;20035;-77
2021/06/04 07:58:52;;;;;;;9.40;6.00;;;;;;;21.81;57.58;98301.31;5050874;28;20028;-77
2021/06/04 08:01:18;;;;;;;16.60;6.70;;;;;;;21.82;58.84;98283.97;5068469;28;20025;-77
2021/06/04 08:03:45;;;;;;;15.02;6.25;;;;;;;21.86;55.17;98287.28;5046119;28;20025;-77
2021/06/04 08:06:12;;;;;;;54.75;37.83;;;;;;;21.89;54.99;98296.03;5048275;28;20024;-77
2021/06/04 08:08:38;;;;;;;15.07;9.23;;;;;;;22.02;55.51;98301.19;5048021;28;20032;-77
2021/06/04 08:11:07;;;;;;;7.47;5.05;;;;;;;22.38;55.04;98310.38;5029884;28;20443;-77
2021/06/04 08:13:33;;;;;;;9.63;4.93;;;;;;;23.00;52.50;98310.50;5013678;28;20032;-76
2021/06/04 08:16:06;;;;;;;25.75;6.65;;;;;;;23.26;53.15;98301.56;5030343;28;20443;-76
2021/06/04 08:18:33;;;;;;;10.88;6.05;;;;;;;23.34;51.67;98305.22;5030209;28;20025;-76
2021/06/04 08:21:00;;;;;;;7.18;5.03;;;;;;;23.93;49.96;98299.09;5030006;28;20029;-76
2021/06/04 08:23:32;;;;;;;13.68;4.70;;;;;;;24.13;48.37;98302.47;5037235;28;20025;-76
2021/06/04 08:25:58;;;;;;;20.80;7.90;;;;;;;23.86;48.79;98316.28;5030876;28;20395;-76
2021/06/04 08:28:26;;;;;;;10.23;4.68;;;;;;;24.36;47.94;98300.06;5047731;28;20025;-76
2021/06/04 08:30:52;;;;;;;17.77;10.40;;;;;;;24.61;46.36;98312.84;5047835;28;20029;-77
2021/06/04 08:33:20;;;;;;;13.50;4.80;;;;;;;25.04;44.65;98323.63;5029625;28;20028;-78
2021/06/04 08:35:46;;;;;;;11.95;4.43;;;;;;;25.35;43.86;98322.00;5058852;28;20036;-77
2021/06/04 08:38:11;;;;;;;11.95;4.45;;;;;;;25.28;41.85;98311.88;5035387;28;20531;-77
2021/06/04 08:40:38;;;;;;;16.98;5.22;;;;;;;25.16;43.88;98335.97;5048060;28;20805;-77
2021/06/04 08:43:41;;;;;;;13.25;5.55;;;;;;;24.96;43.95;98329.09;5030358;28;20033;-77
2021/06/04 08:46:16;;;;;;;10.68;4.88;;;;;;;25.27;43.27;98324.72;5039878;28;20025;-77
2021/06/04 08:48:42;;;;;;;12.50;4.35;;;;;;;25.41;41.68;98325.09;5033324;28;20112;-77
2021/06/04 08:51:13;;;;;;;13.70;4.03;;;;;;;24.87;42.83;98327.34;5067765;28;20136;-77
2021/06/04 08:54:09;;;;;;;16.65;8.65;;;;;;;25.39;43.80;98322.50;5042731;28;20086;-77
2021/06/04 08:56:45;;;;;;;7.15;4.40;;;;;;;25.05;42.89;98314.41;5049455;28;20041;-77
2021/06/04 08:59:13;;;;;;;12.27;5.53;;;;;;;26.13;41.35;98327.88;5050494;28;20032;-78
2021/06/04 09:01:54;;;;;;;10.07;4.38;;;;;;;26.90;38.99;98326.34;5014850;28;20500;-76
2021/06/04 09:04:25;;;;;;;10.80;4.18;;;;;;;26.75;38.71;98325.34;5050288;28;20041;-76
2021/06/04 09:06:58;;;;;;;9.90;3.92;;;;;;;27.00;38.11;98299.50;5016098;28;20090;-76
2021/06/04 09:10:15;;;;;;;9.32;4.10;;;;;;;27.33;40.40;98334.00;5050203;28;20178;-76
2021/06/04 09:12:52;;;;;;;12.20;5.20;;;;;;;28.33;38.84;98321.06;4969667;28;20034;-76
2021/06/04 09:15:21;;;;;;;24.75;5.45;;;;;;;28.32;37.56;98320.19;4953533;28;20113;-77
2021/06/04 09:18:10;;;;;;;18.92;5.88;;;;;;;29.34;36.11;98322.09;4992943;28;20466;-77
2021/06/04 09:20:56;;;;;;;11.10;3.85;;;;;;;29.39;34.75;98319.59;5050583;28;20484;-77
2021/06/04 09:23:35;;;;;;;14.13;3.97;;;;;;;29.41;32.61;98319.41;5034321;28;20063;-76
2021/06/04 09:26:01;;;;;;;12.30;7.20;;;;;;;29.67;32.53;98308.63;5036139;28;20037;-77
2021/06/04 09:28:47;;;;;;;6.95;3.47;;;;;;;28.70;32.81;98322.91;5035963;28;20127;-76
2021/06/04 09:31:12;;;;;;;11.65;4.47;;;;;;;28.93;33.87;98326.38;5070905;28;20040;-78
2021/06/04 09:33:53;;;;;;;6.60;3.78;;;;;;;28.31;34.20;98304.72;5073657;28;20028;-78
2021/06/04 09:36:26;;;;;;;6.47;2.95;;;;;;;27.24;34.55;98318.59;5055761;28;20084;-78
2021/06/04 09:39:22;;;;;;;5.68;3.28;;;;;;;26.75;35.25;98322.59;5073859;28;20476;-78
2021/06/04 09:41:49;;;;;;;9.45;3.20;;;;;;;26.35;36.07;98327.19;5055803;28;20022;-77
2021/06/04 09:44:23;;;;;;;8.25;3.10;;;;;;;26.23;37.24;98331.31;5055525;28;20009;-77
2021/06/04 09:46:49;;;;;;;8.93;3.63;;;;;;;25.18;38.61;98331.22;5042058;28;20021;-78
2021/06/04 09:49:34;;;;;;;4.80;3.38;;;;;;;25.19;38.69;98327.47;5053268;28;20029;-77
2021/06/04 09:52:18;;;;;;;4.00;3.22;;;;;;;25.22;39.22;98316.16;5050993;28;20025;-78
2021/06/04 09:54:44;;;;;;;7.32;4.70;;;;;;;25.10;39.73;98317.47;5050867;28;20033;-77
2021/06/04 09:57:11;;;;;;;9.38;4.70;;;;;;;25.26;40.65;98313.91;5035448;28;20028;-77
2021/06/04 09:59:38;;;;;;;6.00;3.85;;;;;;;25.46;39.77;98301.63;5053302;28;20025;-77
2021/06/04 10:02:40;;;;;;;6.47;4.20;;;;;;;26.05;37.95;98291.38;5035604;28;20472;-77
2021/06/04 10:05:30;;;;;;;9.20;2.90;;;;;;;26.48;35.31;98301.94;5060334;28;20176;-78
2021/06/04 10:08:05;;;;;;;21.75;12.98;;;;;;;26.18;36.54;98298.06;5063435;28;20139;-77
2021/06/04 10:10:36;;;;;;;10.27;3.50;;;;;;;26.62;36.64;98303.06;5038234;28;20051;-78
2021/06/04 10:13:04;;;;;;;5.22;3.67;;;;;;;26.83;36.63;98297.88;5040298;28;20021;-78
2021/06/04 10:15:47;;;;;;;10.40;4.47;;;;;;;26.56;37.80;98290.06;5035399;28;20021;-76
2021/06/04 10:18:34;;;;;;;7.85;5.53;;;;;;;27.08;36.36;98293.97;5035442;28;20035;-76
2021/06/04 10:21:33;;;;;;;6.82;3.15;;;;;;;27.70;34.76;98297.53;5049788;28;20467;-81
2021/06/04 10:24:01;;;;;;;9.77;3.50;;;;;;;27.68;35.60;98282.25;5030205;28;20028;-77
2021/06/04 10:26:36;;;;;;;5.18;3.83;;;;;;;27.76;35.11;98290.41;5052206;28;20036;-77
2021/06/04 10:29:04;;;;;;;6.28;3.50;;;;;;;28.57;34.43;98289.63;5044097;28;20032;-77
2021/06/04 10:31:53;;;;;;;14.00;4.70;;;;;;;30.79;34.42;98284.72;5069889;28;20471;-78
2021/06/04 10:34:52;;;;;;;13.38;4.35;;;;;;;32.40;30.92;98294.69;5070523;28;20038;-78
2021/06/04 10:37:33;;;;;;;15.02;6.40;;;;;;;34.12;28.72;98288.22;5037578;28;20049;-77
2021/06/04 10:40:10;;;;;;;11.48;4.30;;;;;;;35.38;25.98;98285.81;5038370;28;20029;-79
2021/06/04 10:43:13;;;;;;;7.50;4.38;;;;;;;33.77;28.13;98289.75;5075634;28;20052;-77
2021/06/04 10:46:26;;;;;;;8.02;3.30;;;;;;;33.68;27.16;98280.84;5071182;28;20071;-78
2021/06/04 10:49:18;;;;;;;4.35;3.10;;;;;;;32.94;28.44;98288.00;4988155;28;20045;-78
2021/06/04 10:51:56;;;;;;;7.35;3.45;;;;;;;34.72;26.56;98280.19;5067482;28;20040;-78
2021/06/04 10:54:37;;;;;;;10.13;4.13;;;;;;;35.55;25.09;98284.09;5069443;28;20136;-78
2021/06/04 10:57:15;;;;;;;13.18;3.70;;;;;;;35.76;25.23;98274.38;5049734;28;20082;-78
2021/06/04 10:59:41;;;;;;;7.47;3.55;;;;;;;35.42;25.47;98283.41;5031660;28;20036;-78
2021/06/04 11:02:17;;;;;;;6.35;3.53;;;;;;;33.71;28.20;98285.97;5049586;28;20029;-78
2021/06/04 11:05:09;;;;;;;5.43;3.10;;;;;;;33.96;27.73;98287.91;5031809;28;20031;-78
2021/06/04 11:08:01;;;;;;;9.05;3.10;;;;;;;33.28;28.74;98282.13;5042146;28;20048;-78
2021/06/04 11:10:43;;;;;;;10.02;4.15;;;;;;;32.13;29.70;98290.25;5068934;28;20101;-78
2021/06/04 11:13:31;;;;;;;11.60;3.38;;;;;;;29.59;33.25;98279.25;5051410;28;20034;-78
2021/06/04 11:16:05;;;;;;;19.92;3.92;;;;;;;29.18;34.87;98294.72;5069364;28;20029;-78
2021/06/04 11:18:50;;;;;;;8.15;3.45;;;;;;;28.89;36.63;98289.25;5068943;28;20028;-78
2021/06/04 11:21:32;;;;;;;14.27;3.60;;;;;;;28.66;37.77;98277.50;5048371;28;20036;-78
2021/06/04 11:24:09;;;;;;;8.07;3.60;;;;;;;28.80;36.00;98269.22;5031111;28;20029;-78
2021/06/04 11:26:39;;;;;;;5.05;3.75;;;;;;;29.50;35.94;98263.06;5044254;28;20514;-78
2021/06/04 11:29:20;;;;;;;10.18;4.43;;;;;;;30.36;35.84;98276.56;5050771;28;20028;-77
2021/06/04 11:32:11;;;;;;;10.45;3.92;;;;;;;31.43;33.74;98260.31;5034244;28;20045;-78
2021/06/04 11:35:04;;;;;;;6.20;3.60;;;;;;;32.40;32.54;98258.69;5068330;28;20032;-78
2021/06/04 11:37:51;;;;;;;9.27;3.15;;;;;;;31.17;33.35;98245.34;5068631;28;20102;-78
2021/06/04 11:40:21;;;;;;;7.75;3.30;;;;;;;31.40;33.18;98250.53;5068424;28;20087;-78
2021/06/04 11:42:51;;;;;;;16.83;3.38;;;;;;;31.55;32.50;98244.81;5032240;28;20029;-78
2021/06/04 11:45:18;;;;;;;7.68;3.90;;;;;;;31.29;33.71;98253.03;5032068;28;20029;-77
2021/06/04 11:47:44;;;;;;;8.02;3.08;;;;;;;31.75;32.80;98234.59;5049859;28;20036;-77